Time;durP1;ratioP1;P1;durP2;ratioP2;P2;SDS_P1;SDS_P2;PMS_P1;PMS_P2;Temp;Humidity;BMP_temperature;BMP_pressure;BME280_temperature;BME280_humidity;BME280_pressure;Samples;Min_cycle;Max_cycle;Signal;HPM_P1;HPM_P2
2023/04/03 00:00:36;;;;;;;5.27;2.93;;;4.90;99.90;;;;;;4994054;28;20178;-92
2023/04/03 00:03:02;;;;;;;3.27;2.97;;;4.90;99.90;;;;;;5006038;28;20192;-91
2023/04/03 00:05:28;;;;;;;5.47;3.10;;;4.90;99.90;;;;;;4974484;28;20205;-91
2023/04/03 00:07:53;;;;;;;4.77;2.97;;;5.00;99.90;;;;;;4990472;28;20223;-91
2023/04/03 00:10:19;;;;;;;3.23;2.67;;;5.00;99.90;;;;;;4990359;28;20211;-91
2023/04/03 00:12:45;;;;;;;4.80;3.03;;;4.80;99.90;;;;;;4990873;28;20244;-91
2023/04/03 00:15:11;;;;;;;4.63;2.90;;;4.80;99.90;;;;;;4974188;28;20614;-91
2023/04/03 00:17:38;;;;;;;3.13;2.80;;;4.80;99.90;;;;;;4997805;28;20226;-90
2023/04/03 00:20:05;;;;;;;3.77;3.13;;;4.80;99.90;;;;;;4997684;28;20177;-91
2023/04/03 00:22:31;;;;;;;3.40;3.00;;;4.80;99.90;;;;;;4995041;28;20210;-91
2023/04/03 00:24:57;;;;;;;4.93;3.50;;;4.80;99.90;;;;;;5009750;28;20200;-91
2023/04/03 00:27:23;;;;;;;4.47;3.23;;;4.80;99.90;;;;;;4993874;28;20211;-91
2023/04/03 00:29:49;;;;;;;3.37;3.07;;;4.70;99.90;;;;;;5010039;28;20208;-90
2023/04/03 00:32:15;;;;;;;3.40;3.03;;;4.70;99.90;;;;;;4993689;28;20176;-90
2023/04/03 00:34:42;;;;;;;4.73;3.00;;;4.80;99.90;;;;;;4993385;28;20172;-91
2023/04/03 00:37:07;;;;;;;3.60;3.10;;;4.80;99.90;;;;;;4993592;28;20226;-91
2023/04/03 00:39:33;;;;;;;3.83;2.83;;;4.80;99.90;;;;;;4993199;28;20173;-91
2023/04/03 00:42:00;;;;;;;4.93;3.27;;;4.70;99.90;;;;;;4989784;28;20283;-91
2023/04/03 00:44:34;;;;;;;4.77;3.20;;;4.70;99.90;;;;;;4993359;28;20184;-91
2023/04/03 00:47:03;;;;;;;4.90;2.90;;;4.70;99.90;;;;;;4990019;28;20231;-91
2023/04/03 00:49:29;;;;;;;3.53;3.20;;;4.80;99.90;;;;;;4990354;28;20212;-91
2023/04/03 00:51:57;;;;;;;3.53;2.90;;;4.80;99.90;;;;;;4997582;28;20168;-90
2023/04/03 00:54:23;;;;;;;4.77;2.63;;;4.90;99.90;;;;;;4993119;28;20187;-91
2023/04/03 00:56:53;;;;;;;4.13;3.10;;;4.80;99.90;;;;;;5009228;28;20269;-91
2023/04/03 00:59:26;;;;;;;4.17;3.40;;;4.80;99.90;;;;;;4993152;28;20212;-91
2023/04/03 01:01:56;;;;;;;3.37;3.07;;;4.70;99.90;;;;;;4993043;28;20179;-91
2023/04/03 01:04:43;;;;;;;5.47;3.27;;;4.70;99.90;;;;;;4992957;28;20181;-91
2023/04/03 01:07:22;;;;;;;5.03;2.97;;;4.70;99.90;;;;;;4993061;28;20195;-91
2023/04/03 01:09:51;;;;;;;4.70;3.30;;;4.80;99.90;;;;;;4991992;28;20581;-91
2023/04/03 01:12:21;;;;;;;3.87;2.93;;;4.80;99.90;;;;;;4993006;28;20180;-91
2023/04/03 01:14:50;;;;;;;4.00;3.20;;;4.80;99.90;;;;;;4992313;28;20169;-91
2023/04/03 01:17:35;;;;;;;4.27;3.07;;;4.70;99.90;;;;;;4991912;28;20211;-90
2023/04/03 01:20:31;;;;;;;3.47;2.90;;;4.70;99.90;;;;;;4988405;28;20180;-91
2023/04/03 01:23:08;;;;;;;4.33;3.20;;;4.60;99.90;;;;;;4992646;28;20230;-92
2023/04/03 01:25:36;;;;;;;3.70;2.87;;;4.70;99.90;;;;;;4992338;28;20203;-91
2023/04/03 01:28:05;;;;;;;4.10;3.60;;;4.70;99.90;;;;;;5008874;28;20203;-91
2023/04/03 01:30:39;;;;;;;4.77;3.37;;;4.70;99.90;;;;;;4992081;28;20204;-91
2023/04/03 01:33:05;;;;;;;3.50;3.20;;;4.60;99.90;;;;;;5008667;28;20171;-91
2023/04/03 01:35:32;;;;;;;5.20;3.50;;;4.60;99.90;;;;;;4988606;28;20208;-91
2023/04/03 01:37:58;;;;;;;5.30;3.20;;;4.60;99.90;;;;;;4972820;28;20173;-91
2023/04/03 01:40:24;;;;;;;3.93;3.20;;;4.50;99.90;;;;;;4988857;28;20212;-91
2023/04/03 01:42:50;;;;;;;4.27;3.23;;;4.50;99.90;;;;;;4982652;28;20286;-91
2023/04/03 01:45:16;;;;;;;3.90;3.47;;;4.40;99.90;;;;;;4991316;28;20208;-91
2023/04/03 01:47:42;;;;;;;5.13;3.27;;;4.40;99.90;;;;;;4999256;28;20233;-91
2023/04/03 01:50:09;;;;;;;5.07;3.30;;;4.40;99.90;;;;;;4994313;28;20203;-91
2023/04/03 01:52:35;;;;;;;4.83;2.90;;;4.40;99.90;;;;;;4994397;28;20175;-90
2023/04/03 01:55:01;;;;;;;3.73;3.43;;;4.40;99.90;;;;;;5010067;28;20206;-91
2023/04/03 01:57:27;;;;;;;4.80;3.30;;;4.30;99.90;;;;;;4994014;28;20175;-91
2023/04/03 01:59:53;;;;;;;4.50;3.00;;;4.30;99.90;;;;;;5010448;28;20183;-91
2023/04/03 02:02:20;;;;;;;4.37;3.20;;;4.30;99.90;;;;;;5010836;28;20178;-91
2023/04/03 02:04:46;;;;;;;3.77;3.37;;;4.20;99.90;;;;;;4994187;28;20206;-90
2023/04/03 02:07:12;;;;;;;4.90;2.83;;;4.20;99.90;;;;;;5010765;28;20207;-91
2023/04/03 02:09:38;;;;;;;3.87;3.23;;;4.20;99.90;;;;;;4994116;28;20234;-91
2023/04/03 02:12:04;;;;;;;6.00;3.40;;;4.20;99.90;;;;;;4994301;28;20175;-91
2023/04/03 02:14:31;;;;;;;3.60;3.27;;;4.30;99.90;;;;;;4994418;28;20203;-91
2023/04/03 02:16:57;;;;;;;3.47;3.10;;;4.30;99.90;;;;;;4994078;28;20195;-91
2023/04/03 02:19:23;;;;;;;3.70;3.40;;;4.30;99.90;;;;;;4998891;28;20251;-90
2023/04/03 02:21:49;;;;;;;3.40;3.10;;;4.20;99.90;;;;;;4990192;28;20176;-91
2023/04/03 02:24:15;;;;;;;3.37;2.70;;;4.20;99.90;;;;;;4990551;28;20180;-91
2023/04/03 02:26:41;;;;;;;4.00;2.90;;;4.20;99.90;;;;;;4994159;28;20238;-91
2023/04/03 02:29:07;;;;;;;3.43;3.07;;;4.30;99.90;;;;;;4994020;28;20187;-92
2023/04/03 02:31:34;;;;;;;3.37;2.97;;;4.40;99.90;;;;;;4994203;28;20179;-92
2023/04/03 02:34:02;;;;;;;3.77;3.37;;;4.30;99.90;;;;;;4993714;28;20578;-91
2023/04/03 02:36:28;;;;;;;3.57;3.27;;;4.40;99.90;;;;;;4994010;28;20285;-91
2023/04/03 02:38:58;;;;;;;4.20;3.37;;;4.30;99.90;;;;;;4993869;28;20270;-91
2023/04/03 02:41:27;;;;;;;4.03;3.37;;;4.40;99.90;;;;;;5010035;28;20242;-91
2023/04/03 02:43:55;;;;;;;4.07;3.27;;;4.40;99.90;;;;;;4950374;28;1192722;-90
2023/04/03 02:46:21;;;;;;;3.57;3.27;;;4.40;99.90;;;;;;4991416;28;20196;-91
2023/04/03 02:48:47;;;;;;;3.67;3.00;;;4.40;99.90;;;;;;5007659;28;20172;-91
2023/04/03 02:51:13;;;;;;;4.47;2.80;;;4.40;99.90;;;;;;4991231;28;20200;-91
2023/04/03 02:53:39;;;;;;;4.37;2.83;;;4.40;99.90;;;;;;4991475;28;20172;-91
2023/04/03 02:56:11;;;;;;;5.63;3.00;;;4.50;99.90;;;;;;5007443;28;20220;-91
2023/04/03 02:58:37;;;;;;;3.07;2.77;;;4.50;99.90;;;;;;4991223;28;20206;-91
2023/04/03 03:01:04;;;;;;;3.60;2.90;;;4.50;99.90;;;;;;5007827;28;20173;-91
2023/04/03 03:03:30;;;;;;;3.87;3.03;;;4.50;99.90;;;;;;5007603;28;20184;-92
2023/04/03 03:06:13;;;;;;;4.37;3.53;;;4.50;99.90;;;;;;4991390;28;20204;-91
2023/04/03 03:08:40;;;;;;;3.80;3.40;;;4.50;99.90;;;;;;4987929;28;20177;-91
2023/04/03 03:11:06;;;;;;;3.97;3.40;;;4.50;99.90;;;;;;4987784;28;20696;-91
2023/04/03 03:13:33;;;;;;;3.63;2.73;;;4.50;99.90;;;;;;4991298;28;20180;-91
2023/04/03 03:15:59;;;;;;;3.47;3.10;;;4.50;99.90;;;;;;5007539;28;20204;-91
2023/04/03 03:18:25;;;;;;;4.40;3.00;;;4.50;99.90;;;;;;5006192;28;20244;-90
2023/04/03 03:20:52;;;;;;;3.30;2.90;;;4.50;99.90;;;;;;4993391;28;20185;-91
2023/04/03 03:23:19;;;;;;;3.63;3.17;;;4.50;99.90;;;;;;4988055;28;20189;-92
2023/04/03 03:25:45;;;;;;;4.20;3.27;;;4.50;99.90;;;;;;4994827;28;20196;-91
2023/04/03 03:28:11;;;;;;;3.07;2.77;;;4.50;99.90;;;;;;4991174;28;20234;-91
2023/04/03 03:30:37;;;;;;;4.33;3.23;;;4.50;99.90;;;;;;4990742;28;20203;-91
2023/04/03 03:33:03;;;;;;;6.23;3.60;;;4.50;99.90;;;;;;4991387;28;20173;-91
2023/04/03 03:35:29;;;;;;;4.37;3.30;;;4.50;99.90;;;;;;4994463;28;20208;-91
2023/04/03 03:37:55;;;;;;;5.50;3.20;;;4.60;99.90;;;;;;4995010;28;20186;-91
2023/04/03 03:40:22;;;;;;;3.47;3.17;;;4.50;99.90;;;;;;4994434;28;20192;-91
2023/04/03 03:42:48;;;;;;;4.50;3.03;;;4.50;99.90;;;;;;4994284;28;20254;-91
2023/04/03 03:45:14;;;;;;;6.00;3.40;;;4.50;99.90;;;;;;4994274;28;20189;-91
2023/04/03 03:47:41;;;;;;;3.90;2.73;;;4.50;99.90;;;;;;4994254;28;20177;-91
2023/04/03 03:50:08;;;;;;;3.30;2.90;;;4.50;99.90;;;;;;5007295;28;20215;-91
2023/04/03 03:52:34;;;;;;;3.73;2.70;;;4.50;99.90;;;;;;4993805;28;20184;-91
2023/04/03 03:55:00;;;;;;;3.30;2.90;;;4.50;99.90;;;;;;5010542;28;20180;-90
2023/04/03 03:57:28;;;;;;;3.87;2.80;;;4.40;99.90;;;;;;5010481;28;20194;-91
2023/04/03 03:59:55;;;;;;;3.43;3.13;;;4.40;99.90;;;;;;4994549;28;20188;-91
2023/04/03 04:02:21;;;;;;;3.63;3.07;;;4.30;99.90;;;;;;4994007;28;20188;-91
2023/04/03 04:04:48;;;;;;;3.03;2.73;;;4.20;99.90;;;;;;4993769;28;20207;-91
2023/04/03 04:07:14;;;;;;;3.77;3.13;;;4.20;99.90;;;;;;5009950;28;20199;-91
2023/04/03 04:09:40;;;;;;;3.30;2.67;;;4.10;99.90;;;;;;4994008;28;20196;-91
2023/04/03 04:12:08;;;;;;;3.10;2.50;;;4.20;99.90;;;;;;5010395;28;20176;-91
2023/04/03 04:14:34;;;;;;;3.40;2.90;;;4.20;99.90;;;;;;4993635;28;20180;-91
2023/04/03 04:17:02;;;;;;;3.30;3.00;;;4.30;99.90;;;;;;4993775;28;20207;-90
2023/04/03 04:19:28;;;;;;;3.57;2.83;;;4.20;99.90;;;;;;4999084;28;20227;-91
2023/04/03 04:21:54;;;;;;;3.97;2.70;;;4.20;99.90;;;;;;4990365;28;20176;-91
2023/04/03 04:24:22;;;;;;;4.33;3.10;;;4.30;99.90;;;;;;4993321;28;20180;-91
2023/04/03 04:26:51;;;;;;;2.80;2.60;;;4.20;99.90;;;;;;4974419;28;20279;-92
2023/04/03 04:29:18;;;;;;;3.70;3.17;;;4.30;99.90;;;;;;4990357;28;20173;-91
2023/04/03 04:31:46;;;;;;;3.97;2.90;;;4.30;99.90;;;;;;4991239;28;20168;-91
2023/04/03 04:34:12;;;;;;;3.67;3.13;;;4.30;99.90;;;;;;4995867;28;20172;-91
2023/04/03 04:36:39;;;;;;;4.77;2.90;;;4.40;99.90;;;;;;4991022;28;20196;-91
2023/04/03 04:39:05;;;;;;;3.30;2.97;;;4.30;99.90;;;;;;4997033;28;20183;-90
2023/04/03 04:41:32;;;;;;;3.80;2.90;;;4.30;99.90;;;;;;4993287;28;20180;-91
2023/04/03 04:43:59;;;;;;;3.80;3.00;;;4.30;99.90;;;;;;4980877;28;20186;-91
2023/04/03 04:46:26;;;;;;;3.57;2.80;;;4.30;99.90;;;;;;5009292;28;20208;-91
2023/04/03 04:48:56;;;;;;;5.70;2.93;;;4.30;99.90;;;;;;5017678;28;20266;-91
2023/04/03 04:51:25;;;;;;;5.00;2.93;;;4.30;99.90;;;;;;4983271;28;20200;-92
2023/04/03 04:53:55;;;;;;;3.83;2.73;;;4.30;99.90;;;;;;4996195;28;20195;-91
2023/04/03 04:56:22;;;;;;;3.87;2.90;;;4.20;99.90;;;;;;5011972;28;20207;-91
2023/04/03 04:59:48;;;;;;;5.17;3.17;;;4.20;99.90;;;;;;5000478;28;20195;-92
2023/04/03 05:02:16;;;;;;;3.60;2.83;;;4.30;99.90;;;;;;4989922;28;20187;-91
2023/04/03 05:04:44;;;;;;;3.27;2.87;;;4.30;99.90;;;;;;4988682;28;20187;-90
2023/04/03 05:07:19;;;;;;;3.17;2.70;;;4.30;99.90;;;;;;4984111;28;20201;-91
2023/04/03 05:09:46;;;;;;;3.63;2.80;;;4.20;99.90;;;;;;5011610;28;20222;-91
2023/04/03 05:12:14;;;;;;;2.60;2.40;;;4.20;99.90;;;;;;4992633;28;20267;-92
2023/04/03 05:14:46;;;;;;;4.93;3.00;;;4.30;99.90;;;;;;5004987;28;20257;-91
2023/04/03 05:17:12;;;;;;;4.57;3.07;;;4.30;99.90;;;;;;5011452;28;20306;-91
2023/04/03 05:19:42;;;;;;;4.57;2.87;;;4.30;99.90;;;;;;5012123;28;20262;-91
2023/04/03 05:22:09;;;;;;;4.03;3.03;;;4.30;99.90;;;;;;4995888;28;20259;-91
2023/04/03 05:24:36;;;;;;;3.03;2.80;;;4.30;99.90;;;;;;5012039;28;20202;-92
2023/04/03 05:27:02;;;;;;;5.00;2.80;;;4.30;99.90;;;;;;4995770;28;20227;-91
2023/04/03 05:29:29;;;;;;;3.70;2.83;;;4.30;99.90;;;;;;4995687;28;20194;-91
2023/04/03 05:31:57;;;;;;;3.00;2.70;;;4.40;99.90;;;;;;4995693;28;20193;-91
2023/04/03 05:34:24;;;;;;;3.43;3.13;;;4.40;99.90;;;;;;4995720;28;20184;-91
2023/04/03 05:36:53;;;;;;;4.07;2.70;;;4.30;99.90;;;;;;4992316;28;20200;-91
2023/04/03 05:39:19;;;;;;;4.40;2.60;;;4.30;99.90;;;;;;4992510;28;20183;-91
2023/04/03 05:41:46;;;;;;;3.23;2.73;;;4.20;99.90;;;;;;5007365;28;20178;-91
2023/04/03 05:44:12;;;;;;;2.83;2.30;;;4.20;99.90;;;;;;4995366;28;20175;-90
2023/04/03 05:46:39;;;;;;;2.40;2.20;;;4.20;99.90;;;;;;4995153;28;20641;-91
2023/04/03 05:49:07;;;;;;;2.90;2.50;;;4.20;99.90;;;;;;5004107;28;20195;-84
2023/04/03 05:51:36;;;;;;;5.00;2.80;;;4.20;99.90;;;;;;4986365;28;20577;-91
2023/04/03 05:54:27;;;;;;;4.23;2.57;;;4.30;99.90;;;;;;5003884;28;20186;-91
2023/04/03 05:57:00;;;;;;;3.63;2.47;;;4.30;99.90;;;;;;5011803;28;20201;-92
2023/04/03 05:59:26;;;;;;;2.80;2.50;;;4.30;99.90;;;;;;5011327;28;20269;-91
2023/04/03 06:01:55;;;;;;;4.70;2.40;;;4.40;99.90;;;;;;4994728;28;20199;-90
2023/04/03 06:04:21;;;;;;;5.20;2.30;;;4.40;99.90;;;;;;4994839;28;20176;-91
2023/04/03 06:06:53;;;;;;;3.70;2.40;;;4.40;99.90;;;;;;4994536;28;20253;-91
2023/04/03 06:10:09;;;;;;;2.80;2.20;;;4.40;99.90;;;;;;5002784;28;20167;-91
2023/04/03 06:13:40;;;;;;;4.43;2.43;;;4.40;99.90;;;;;;4992537;28;20190;-91
2023/04/03 06:23:51;;;;;;;2.40;2.20;;;4.60;99.90;;;;;;4992722;28;20255;-91
2023/04/03 06:26:17;;;;;;;4.03;2.30;;;4.60;99.90;;;;;;4975135;28;20215;-91
2023/04/03 06:28:43;;;;;;;2.87;2.30;;;4.70;99.90;;;;;;4991936;28;20176;-91
2023/04/03 06:31:09;;;;;;;3.20;2.43;;;4.70;99.90;;;;;;4975593;28;20262;-90
2023/04/03 06:33:35;;;;;;;2.83;2.30;;;4.70;99.90;;;;;;4977234;28;20175;-92
2023/04/03 06:36:04;;;;;;;5.10;2.27;;;4.70;99.90;;;;;;4994402;28;20254;-91
2023/04/03 06:38:31;;;;;;;3.73;2.27;;;4.80;99.90;;;;;;4994654;28;20188;-91
2023/04/03 06:40:57;;;;;;;2.20;1.90;;;4.80;99.90;;;;;;5043255;23;20195;-41
2023/04/03 06:43:22;;;;;;;2.53;2.20;;;4.80;99.90;;;;;;4994665;28;20176;-42
2023/04/03 06:45:48;;;;;;;3.30;1.90;;;4.80;99.90;;;;;;5010649;28;20176;-42
2023/04/03 06:48:15;;;;;;;3.00;2.00;;;4.90;99.90;;;;;;4987034;28;20199;-41
2023/04/03 06:50:43;;;;;;;2.10;1.90;;;4.90;99.90;;;;;;5012074;28;20227;-40
2023/04/03 06:53:09;;;;;;;2.70;2.07;;;4.90;99.90;;;;;;4995081;28;20176;-42
2023/04/03 06:55:35;;;;;;;2.00;1.80;;;4.90;99.90;;;;;;4994895;28;20271;-41
2023/04/03 06:58:03;;;;;;;3.40;2.30;;;4.90;99.90;;;;;;4994790;28;20214;-42
2023/04/03 07:00:30;;;;;;;3.20;1.90;;;5.00;99.90;;;;;;4995169;28;20180;-41
2023/04/03 07:02:57;;;;;;;2.93;1.80;;;5.00;99.90;;;;;;4992080;28;20186;-41
2023/04/03 07:05:24;;;;;;;2.83;2.00;;;4.90;99.90;;;;;;4996478;28;20203;-41
2023/04/03 07:07:51;;;;;;;3.10;1.97;;;4.90;99.90;;;;;;4977925;28;20202;-42
2023/04/03 07:10:17;;;;;;;2.27;1.97;;;5.00;99.90;;;;;;5014952;28;20218;-41
2023/04/03 07:12:42;;;;;;;3.17;2.10;;;5.00;99.90;;;;;;4998513;28;20171;-42
2023/04/03 07:15:09;;;;;;;3.00;2.17;;;5.10;99.90;;;;;;4981921;28;20175;-42
2023/04/03 07:17:36;;;;;;;3.33;2.13;;;5.10;99.90;;;;;;4998034;28;20200;-41
2023/04/03 07:20:03;;;;;;;3.73;2.20;;;5.20;99.90;;;;;;5014773;28;20183;-41
2023/04/03 07:22:31;;;;;;;1.87;1.73;;;5.30;99.90;;;;;;4998552;28;20513;-42
2023/04/03 07:24:56;;;;;;;2.40;1.97;;;5.20;99.90;;;;;;4981510;28;20275;-42
2023/04/03 07:27:22;;;;;;;2.90;2.13;;;5.20;99.90;;;;;;4997884;28;20206;-41
2023/04/03 07:29:48;;;;;;;3.27;2.03;;;5.20;99.90;;;;;;5014451;28;20207;-42
2023/04/03 07:32:15;;;;;;;2.23;1.93;;;5.30;99.90;;;;;;5015164;28;20171;-42
2023/04/03 07:34:41;;;;;;;3.40;1.77;;;5.40;99.90;;;;;;5010379;28;20172;-42
2023/04/03 07:37:06;;;;;;;2.30;2.10;;;5.40;99.90;;;;;;4986502;28;20677;-41
2023/04/03 07:39:33;;;;;;;3.10;1.90;;;5.40;99.90;;;;;;4995936;28;20178;-42
2023/04/03 07:41:59;;;;;;;3.57;1.80;;;5.40;99.90;;;;;;4995038;28;20197;-41
2023/04/03 07:44:26;;;;;;;1.90;1.70;;;5.30;99.90;;;;;;4993884;28;20187;-42
2023/04/03 07:46:51;;;;;;;2.37;1.70;;;5.40;99.90;;;;;;4977197;28;20230;-42
2023/04/03 07:49:18;;;;;;;1.93;1.73;;;5.50;99.90;;;;;;4977086;28;20184;-42
2023/04/03 07:51:45;;;;;;;2.00;1.50;;;5.50;99.90;;;;;;5012691;28;20219;-41
2023/04/03 07:54:11;;;;;;;2.47;1.80;;;5.60;99.90;;;;;;5011710;28;20180;-40
2023/04/03 07:56:36;;;;;;;3.20;2.20;;;5.70;99.90;;;;;;5013812;28;20178;-41
2023/04/03 07:59:03;;;;;;;1.87;1.70;;;5.90;99.90;;;;;;4979872;28;20204;-42
2023/04/03 08:01:32;;;;;;;2.03;1.83;;;5.90;99.90;;;;;;4994973;28;20180;-42
2023/04/03 08:03:58;;;;;;;2.33;1.80;;;5.90;99.90;;;;;;4994979;28;20189;-40
2023/04/03 08:06:23;;;;;;;2.00;1.80;;;5.80;99.90;;;;;;4995131;28;20181;-41
2023/04/03 08:08:49;;;;;;;2.37;1.87;;;5.90;99.90;;;;;;5013000;28;20211;-42
2023/04/03 08:11:15;;;;;;;2.30;1.77;;;5.90;99.90;;;;;;4990076;28;20240;-41
2023/04/03 08:13:42;;;;;;;3.47;1.97;;;6.10;99.90;;;;;;5012984;28;20184;-41
2023/04/03 08:16:20;;;;;;;2.30;1.80;;;6.20;99.90;;;;;;4989468;28;20251;-41
2023/04/03 08:18:48;;;;;;;2.03;1.50;;;6.30;99.90;;;;;;4987612;28;20237;-42
2023/04/03 08:21:14;;;;;;;2.30;1.97;;;6.30;99.90;;;;;;4993006;28;20276;-41
2023/04/03 08:23:48;;;;;;;2.10;1.80;;;6.30;99.90;;;;;;4994357;28;20248;-42
2023/04/03 08:26:15;;;;;;;2.93;1.73;;;6.40;99.90;;;;;;5008276;28;20207;-41
2023/04/03 08:28:43;;;;;;;2.57;2.03;;;6.50;99.90;;;;;;4994366;28;20212;-41
2023/04/03 08:31:15;;;;;;;3.00;2.00;;;6.60;99.90;;;;;;4999850;28;20209;-41
2023/04/03 08:33:41;;;;;;;3.90;2.13;;;6.70;99.90;;;;;;5010022;28;20178;-37
2023/04/03 08:36:21;;;;;;;5.13;2.27;;;6.80;99.90;;;;;;5009300;28;20201;-42
2023/04/03 08:38:49;;;;;;;2.77;2.03;;;6.90;99.90;;;;;;4974397;28;20209;-42
2023/04/03 08:41:35;;;;;;;3.83;2.17;;;7.00;99.90;;;;;;4999397;28;20192;-41
2023/04/03 08:44:15;;;;;;;2.33;1.70;;;7.10;99.90;;;;;;5014787;28;20228;-38
2023/04/03 08:47:19;;;;;;;3.43;1.80;;;7.10;99.90;;;;;;5030979;28;20220;-40
2023/04/03 08:49:50;;;;;;;3.43;2.00;;;7.20;99.90;;;;;;5010880;28;20201;-41
2023/04/03 08:53:00;;;;;;;2.57;1.90;;;7.20;99.90;;;;;;5026502;28;20188;-41
2023/04/03 08:55:42;;;;;;;2.80;1.90;;;7.20;99.90;;;;;;5014110;28;20187;-42
2023/04/03 08:58:14;;;;;;;2.10;1.90;;;7.20;99.90;;;;;;5027510;28;20206;-38
2023/04/03 09:01:03;;;;;;;2.37;1.73;;;7.20;99.90;;;;;;5018304;28;20230;-42
2023/04/03 09:03:37;;;;;;;2.00;1.60;;;7.10;99.90;;;;;;5022108;28;20242;-40
2023/04/03 09:06:13;;;;;;;2.80;1.70;;;7.10;99.90;;;;;;5013723;28;20178;-41
2023/04/03 09:08:42;;;;;;;2.73;1.70;;;7.20;99.90;;;;;;4995058;28;20208;-40
2023/04/03 09:11:23;;;;;;;2.87;1.80;;;7.20;99.90;;;;;;5011209;28;20222;-41
2023/04/03 09:14:02;;;;;;;4.13;2.00;;;7.00;99.90;;;;;;4994605;28;20190;-42
2023/04/03 09:16:50;;;;;;;4.03;2.17;;;7.10;99.90;;;;;;4994998;28;20179;-41
2023/04/03 09:19:45;;;;;;;3.83;1.90;;;7.20;99.90;;;;;;5012508;28;20179;-41
2023/04/03 09:22:20;;;;;;;2.43;1.90;;;7.40;99.90;;;;;;4994682;28;20396;-41
2023/04/03 09:24:50;;;;;;;2.37;2.17;;;7.50;99.90;;;;;;4994480;28;20270;-39
2023/04/03 09:27:16;;;;;;;3.07;2.10;;;7.50;99.90;;;;;;5023107;28;20210;-40
2023/04/03 09:29:45;;;;;;;1.90;1.80;;;7.30;99.90;;;;;;4996547;28;20195;-41
2023/04/03 09:32:28;;;;;;;2.37;1.67;;;7.40;99.90;;;;;;4998691;28;20173;-41
2023/04/03 09:35:01;;;;;;;2.20;1.60;;;7.50;99.90;;;;;;5031083;28;20174;-41
2023/04/03 09:37:43;;;;;;;4.10;2.03;;;7.40;99.90;;;;;;4985968;28;20210;-39
2023/04/03 09:40:34;;;;;;;2.27;1.77;;;7.40;99.90;;;;;;4998548;28;20178;-41
2023/04/03 09:43:18;;;;;;;2.87;1.90;;;7.70;99.90;;;;;;5001884;28;20202;-40
2023/04/03 09:45:47;;;;;;;2.93;1.70;;;7.80;99.90;;;;;;5024680;28;20186;-41
2023/04/03 09:48:12;;;;;;;2.37;1.90;;;7.90;99.90;;;;;;5008140;28;20245;-41
2023/04/03 09:51:02;;;;;;;1.70;1.60;;;7.80;99.90;;;;;;5022495;28;20637;-36
2023/04/03 09:53:29;;;;;;;2.97;1.90;;;7.80;99.90;;;;;;5011023;28;20193;-41
2023/04/03 09:55:56;;;;;;;2.60;1.70;;;7.90;99.90;;;;;;5010915;28;20174;-41
2023/04/03 09:58:33;;;;;;;2.00;1.70;;;8.10;99.90;;;;;;5009973;28;20214;-41
2023/04/03 10:01:01;;;;;;;2.53;2.00;;;8.10;99.90;;;;;;5023950;28;20197;-41
2023/04/03 10:03:34;;;;;;;2.67;2.00;;;8.10;99.90;;;;;;5027759;28;20197;-42
2023/04/03 10:06:01;;;;;;;2.57;1.93;;;8.10;99.90;;;;;;5012781;28;20227;-40
2023/04/03 10:08:33;;;;;;;3.47;2.10;;;8.20;99.90;;;;;;5018709;28;20202;-41
2023/04/03 10:11:09;;;;;;;2.93;2.00;;;8.00;99.90;;;;;;5026929;28;20199;-42
2023/04/03 10:13:48;;;;;;;2.90;1.70;;;8.10;99.90;;;;;;5011892;28;20181;-40
2023/04/03 10:16:18;;;;;;;2.07;1.57;;;8.20;99.90;;;;;;5023130;28;20209;-40
2023/04/03 10:19:13;;;;;;;2.50;1.70;;;8.10;99.90;;;;;;5024877;28;20248;-41
2023/04/03 10:21:42;;;;;;;2.30;1.73;;;8.30;99.90;;;;;;5028122;28;20205;-41
2023/04/03 10:24:18;;;;;;;3.23;1.70;;;8.30;99.90;;;;;;5010113;28;20272;-41
2023/04/03 10:27:01;;;;;;;2.70;1.97;;;8.20;99.90;;;;;;5010983;28;20209;-41
2023/04/03 10:29:34;;;;;;;2.27;1.70;;;8.20;99.90;;;;;;5006499;28;20199;-41
2023/04/03 10:32:23;;;;;;;2.90;1.90;;;8.20;99.90;;;;;;5009876;28;20182;-40
2023/04/03 10:34:55;;;;;;;2.97;1.60;;;8.10;99.90;;;;;;5028266;28;20219;-39
2023/04/03 10:37:36;;;;;;;2.53;1.70;;;8.00;99.90;;;;;;5028038;28;20282;-41
2023/04/03 10:40:15;;;;;;;2.67;1.70;;;8.10;99.90;;;;;;5009943;28;20273;-42
2023/04/03 10:43:10;;;;;;;3.10;2.10;;;8.10;99.90;;;;;;5005709;28;20194;-41
2023/04/03 10:45:48;;;;;;;3.00;1.93;;;8.20;99.90;;;;;;5030517;28;20171;-41
2023/04/03 10:48:41;;;;;;;3.30;1.80;;;8.30;99.90;;;;;;5016636;28;20209;-41
2023/04/03 10:51:13;;;;;;;1.83;1.63;;;8.40;99.90;;;;;;5000588;28;20213;-41
2023/04/03 10:54:12;;;;;;;2.53;1.70;;;8.50;99.90;;;;;;5017144;28;20205;-39
2023/04/03 10:56:56;;;;;;;2.47;2.10;;;8.50;99.90;;;;;;5033718;28;20667;-41
2023/04/03 10:59:48;;;;;;;4.10;1.90;;;8.60;99.90;;;;;;5016933;28;20261;-41
2023/04/03 11:02:23;;;;;;;2.30;1.73;;;8.60;99.90;;;;;;5013802;28;20273;-41
2023/04/03 11:04:55;;;;;;;4.50;1.90;;;8.60;99.90;;;;;;5005160;28;20236;-42
2023/04/03 11:07:27;;;;;;;2.50;1.73;;;8.70;99.90;;;;;;5033929;28;20202;-42
2023/04/03 11:10:00;;;;;;;2.27;1.70;;;8.70;99.90;;;;;;5015775;28;20226;-42
2023/04/03 11:12:44;;;;;;;2.50;1.63;;;8.70;99.90;;;;;;5013100;28;20232;-42
2023/04/03 11:15:17;;;;;;;2.10;1.83;;;8.70;99.90;;;;;;5015326;28;20191;-41
2023/04/03 11:18:11;;;;;;;3.70;1.97;;;8.60;99.90;;;;;;4996946;28;20198;-42
2023/04/03 11:20:39;;;;;;;3.87;2.20;;;8.70;99.90;;;;;;5019537;28;20237;-41
2023/04/03 11:23:28;;;;;;;3.37;1.90;;;8.80;99.90;;;;;;5033272;28;20171;-42
2023/04/03 11:26:01;;;;;;;3.67;1.90;;;8.80;99.90;;;;;;5022348;28;20179;-41
2023/04/03 11:28:27;;;;;;;3.67;1.60;;;8.80;99.90;;;;;;5007971;28;20284;-40
2023/04/03 11:31:03;;;;;;;2.57;1.87;;;8.90;99.90;;;;;;5024253;28;20206;-39
2023/04/03 11:33:59;;;;;;;3.53;1.93;;;8.70;99.90;;;;;;5021243;28;20186;-41
2023/04/03 11:36:31;;;;;;;1.87;1.60;;;8.50;99.90;;;;;;5024419;28;20171;-42
2023/04/03 11:39:03;;;;;;;2.57;1.80;;;8.40;99.90;;;;;;5006623;28;20207;-41
2023/04/03 11:41:31;;;;;;;1.60;1.50;;;8.20;99.90;;;;;;5025719;28;20187;-41
2023/04/03 11:44:04;;;;;;;2.90;1.60;;;8.20;99.90;;;;;;5026204;28;20242;-42
2023/04/03 11:47:11;;;;;;;2.70;2.10;;;8.30;99.90;;;;;;5012227;28;20171;-39
2023/04/03 11:50:00;;;;;;;1.90;1.70;;;8.60;99.90;;;;;;4955262;28;20183;-38
2023/04/03 11:52:38;;;;;;;6.77;2.40;;;8.60;99.90;;;;;;4971437;28;20200;-40
2023/04/03 11:55:20;;;;;;;2.20;1.63;;;8.60;99.90;;;;;;5007620;28;20191;-38
2023/04/03 11:57:58;;;;;;;2.40;1.83;;;8.60;99.90;;;;;;5015111;28;20222;-41
2023/04/03 12:00:52;;;;;;;4.93;1.87;;;8.60;99.90;;;;;;5003350;28;20186;-39
2023/04/03 12:03:29;;;;;;;2.90;1.90;;;8.60;99.90;;;;;;5015539;28;20206;-38
2023/04/03 12:06:14;;;;;;;2.23;1.60;;;8.70;99.90;;;;;;5022626;28;20182;-39
2023/04/03 12:08:40;;;;;;;1.93;1.50;;;8.70;99.90;;;;;;5013650;28;20205;-37
2023/04/03 12:11:08;;;;;;;1.87;1.43;;;8.50;99.90;;;;;;4998186;28;20297;-39
2023/04/03 12:13:53;;;;;;;1.97;1.63;;;8.50;99.90;;;;;;5030317;28;20183;-40
2023/04/03 12:16:21;;;;;;;2.43;1.63;;;8.40;99.90;;;;;;5027839;28;20170;-39
2023/04/03 12:18:52;;;;;;;2.43;1.70;;;8.10;99.90;;;;;;5020610;28;20218;-38
2023/04/03 12:21:56;;;;;;;2.37;1.80;;;8.20;99.90;;;;;;4998885;28;20198;-41
2023/04/03 12:24:28;;;;;;;2.77;1.77;;;8.10;99.90;;;;;;5025166;28;20229;-39
2023/04/03 12:26:58;;;;;;;3.00;1.93;;;8.10;99.90;;;;;;4998838;28;20190;-39
2023/04/03 12:29:29;;;;;;;3.00;1.70;;;8.10;99.90;;;;;;5024947;28;20186;-37
2023/04/03 12:32:23;;;;;;;2.17;1.67;;;8.30;99.90;;;;;;5006370;28;20207;-38
2023/04/03 12:35:02;;;;;;;2.40;1.80;;;8.30;99.90;;;;;;5011234;28;20284;-39
2023/04/03 12:37:40;;;;;;;1.93;1.60;;;8.40;99.90;;;;;;5006263;28;20199;-41
2023/04/03 12:40:44;;;;;;;3.10;1.77;;;8.40;99.90;;;;;;5005149;28;20178;-39
2023/04/03 12:43:25;;;;;;;3.00;1.67;;;8.30;99.90;;;;;;5012850;28;20206;-39
2023/04/03 12:46:04;;;;;;;3.47;1.70;;;8.40;99.90;;;;;;5013361;28;20186;-40
2023/04/03 12:48:47;;;;;;;2.43;1.90;;;8.40;99.90;;;;;;5022014;28;20202;-39
2023/04/03 12:51:17;;;;;;;2.23;1.57;;;8.20;99.90;;;;;;5011076;28;20206;-38
2023/04/03 12:53:56;;;;;;;2.97;1.50;;;8.10;99.90;;;;;;5021806;28;20179;-39
2023/04/03 12:56:27;;;;;;;4.67;1.83;;;8.00;99.90;;;;;;5021076;28;20222;-40
2023/04/03 12:58:55;;;;;;;3.57;2.10;;;8.10;99.90;;;;;;5027800;28;20198;-39
2023/04/03 13:01:26;;;;;;;2.90;1.90;;;8.20;99.90;;;;;;5006834;28;20186;-39
2023/04/03 13:03:57;;;;;;;3.70;2.20;;;8.30;99.90;;;;;;5003829;28;20228;-40
2023/04/03 13:06:43;;;;;;;3.80;2.00;;;8.30;99.90;;;;;;4988832;28;20269;-39
2023/04/03 13:09:36;;;;;;;3.27;1.93;;;8.40;99.90;;;;;;5024855;28;20230;-41
2023/04/03 13:12:15;;;;;;;4.63;1.50;;;8.50;99.90;;;;;;5017552;28;20656;-40
2023/04/03 13:14:55;;;;;;;2.67;1.70;;;8.40;99.90;;;;;;5013581;28;20175;-39
2023/04/03 13:17:21;;;;;;;3.87;1.83;;;8.30;99.90;;;;;;5014454;28;20277;-39
2023/04/03 13:19:48;;;;;;;2.43;1.50;;;8.30;99.90;;;;;;5033528;28;20181;-39
2023/04/03 13:22:43;;;;;;;2.10;1.60;;;8.20;99.90;;;;;;5028246;28;20232;-38
2023/04/03 13:25:13;;;;;;;3.57;1.93;;;8.30;99.90;;;;;;5018304;28;20246;-39
2023/04/03 13:27:43;;;;;;;3.47;1.70;;;8.20;99.90;;;;;;4980236;28;20760;-37
2023/04/03 13:30:33;;;;;;;12.57;4.37;;;8.30;99.90;;;;;;4996462;28;20766;-38